createdAt,value
2018-12-23T00:00:43.837Z,99376.55
2018-12-23T00:02:14.275Z,99375.92
2018-12-23T00:03:44.196Z,99375.19
2018-12-23T00:05:14.311Z,99376.81
2018-12-23T00:06:44.262Z,99375.69
2018-12-23T00:08:14.170Z,99388.17
2018-12-23T00:09:44.094Z,99387.91
2018-12-23T00:11:14.347Z,99385.00
2018-12-23T00:12:44.385Z,99387.63
2018-12-23T00:14:14.418Z,99395.20
2018-12-23T00:15:44.348Z,99386.59
2018-12-23T00:17:14.290Z,99382.78
2018-12-23T00:18:44.349Z,99387.86
2018-12-23T00:20:14.275Z,99389.64
2018-12-23T00:21:44.322Z,99388.59
2018-12-23T00:23:14.223Z,99393.98
2018-12-23T00:24:44.175Z,99394.17
2018-12-23T00:26:14.354Z,99391.26
2018-12-23T00:27:44.781Z,99392.59
2018-12-23T00:29:15.422Z,99395.85
2018-12-23T00:30:45.949Z,99396.94
2018-12-23T00:32:16.361Z,99397.36
2018-12-23T00:33:49.119Z,99398.53
2018-12-23T00:35:20.652Z,99387.43
2018-12-23T00:36:50.867Z,99391.27
2018-12-23T00:38:21.123Z,99390.88
2018-12-23T00:39:51.951Z,99394.49
2018-12-23T00:41:23.206Z,99394.72
2018-12-23T00:42:53.215Z,99386.19
2018-12-23T00:44:23.219Z,99389.28
2018-12-23T00:45:56.129Z,99392.53
2018-12-23T00:47:26.089Z,99396.88
2018-12-23T00:48:56.120Z,99394.05
2018-12-23T00:50:26.211Z,99393.87
2018-12-23T00:51:56.382Z,99397.25
2018-12-23T00:53:26.355Z,99390.97
2018-12-23T00:54:56.298Z,99390.88
2018-12-23T00:56:26.223Z,99399.85
2018-12-23T00:57:56.305Z,99398.10
2018-12-23T00:59:26.414Z,99399.50
2018-12-23T01:00:56.561Z,99399.16
2018-12-23T01:02:26.642Z,99404.63
2018-12-23T01:03:56.668Z,99412.60
2018-12-23T01:05:28.888Z,99415.31
2018-12-23T01:06:58.718Z,99415.98
2018-12-23T01:08:28.685Z,99414.55
2018-12-23T01:09:58.870Z,99416.88
2018-12-23T01:11:28.861Z,99412.98
2018-12-23T01:12:58.999Z,99413.76
2018-12-23T01:14:28.980Z,99413.62
2018-12-23T01:15:59.071Z,99409.50
2018-12-23T01:17:29.031Z,99414.56
2018-12-23T01:18:58.991Z,99416.06
2018-12-23T01:20:28.943Z,99411.12
2018-12-23T01:21:59.028Z,99421.42
2018-12-23T01:23:29.014Z,99425.74
2018-12-23T01:24:59.240Z,99419.48
2018-12-23T01:26:29.378Z,99413.54
2018-12-23T01:27:59.659Z,99428.42
2018-12-23T01:29:31.671Z,99424.02
2018-12-23T01:31:01.818Z,99426.86
2018-12-23T01:32:31.915Z,99424.15
2018-12-23T01:34:01.872Z,99429.31
2018-12-23T01:35:37.206Z,99414.30
2018-12-23T01:37:04.321Z,99427.97
2018-12-23T01:38:34.429Z,99429.03
2018-12-23T01:40:05.098Z,99434.47
2018-12-23T01:41:35.331Z,99434.30
2018-12-23T01:43:05.727Z,99435.64
2018-12-23T01:44:36.151Z,99430.99
2018-12-23T01:46:06.580Z,99435.20
2018-12-23T01:47:40.328Z,99446.17
2018-12-23T01:49:12.512Z,99443.84
2018-12-23T01:50:44.778Z,99455.91
2018-12-23T01:52:17.482Z,99455.91
2018-12-23T01:53:49.658Z,99456.38
2018-12-23T01:55:22.027Z,99466.13
2018-12-23T01:56:54.075Z,99462.87
2018-12-23T01:58:24.687Z,99466.23
2018-12-23T01:59:55.307Z,99460.66
2018-12-23T02:01:25.771Z,99464.41
2018-12-23T02:02:58.240Z,99457.86
2018-12-23T02:04:28.642Z,99458.11
2018-12-23T02:05:59.376Z,99460.20
2018-12-23T02:07:31.848Z,99460.66
2018-12-23T02:09:05.727Z,99457.38
2018-12-23T02:10:38.232Z,99457.38
2018-12-23T02:12:10.468Z,99461.73
2018-12-23T02:13:40.948Z,99463.47
2018-12-23T02:15:13.478Z,99460.80
2018-12-23T02:16:44.291Z,99460.80
2018-12-23T02:18:18.532Z,99462.41
2018-12-23T02:19:49.114Z,99459.86
2018-12-23T02:21:21.219Z,99462.02
2018-12-23T02:22:51.955Z,99466.96
2018-12-23T02:24:22.466Z,99461.13
2018-12-23T02:25:54.858Z,99466.53
2018-12-23T02:27:25.927Z,99457.60
2018-12-23T02:28:58.428Z,99454.23
2018-12-23T02:30:33.876Z,99454.66
2018-12-23T02:32:04.544Z,99457.60
2018-12-23T02:33:35.303Z,99458.28
2018-12-23T02:35:07.691Z,99458.58
2018-12-23T02:36:38.334Z,99458.06
2018-12-23T02:38:12.562Z,99458.02
2018-12-23T02:39:45.193Z,99459.39
2018-12-23T02:41:17.076Z,99459.94
2018-12-23T02:42:47.645Z,99464.39
2018-12-23T02:44:18.446Z,99458.28
2018-12-23T02:45:50.579Z,99460.23
2018-12-23T02:47:22.668Z,99455.46
2018-12-23T02:48:57.665Z,99456.35
2018-12-23T02:50:28.681Z,99463.12
2018-12-23T02:51:59.711Z,99465.07
2018-12-23T02:53:31.220Z,99462.65
2018-12-23T02:55:03.752Z,99467.54
2018-12-23T02:56:36.022Z,99459.01
2018-12-23T02:58:06.800Z,99461.59
2018-12-23T02:59:39.349Z,99459.50
2018-12-23T03:01:09.648Z,99463.25
2018-12-23T03:02:40.247Z,99461.51
2018-12-23T03:04:10.811Z,99470.04
2018-12-23T03:05:41.590Z,99460.55
2018-12-23T03:07:13.971Z,99458.30
2018-12-23T03:08:46.574Z,99455.51
2018-12-23T03:10:18.372Z,99457.84
2018-12-23T03:16:38.883Z,99460.89
2018-12-23T03:18:09.232Z,99468.41
2018-12-23T03:19:39.441Z,99472.70
2018-12-23T03:21:09.546Z,99463.28
2018-12-23T03:22:40.085Z,99468.19
2018-12-23T03:24:10.617Z,99460.14
2018-12-23T03:25:40.715Z,99460.14
2018-12-23T03:27:11.057Z,99456.86
2018-12-23T03:28:41.305Z,99463.31
2018-12-23T03:30:11.477Z,99460.47
2018-12-23T03:31:41.866Z,99455.66
2018-12-23T03:33:12.042Z,99458.05
2018-12-23T03:34:42.389Z,99462.57
2018-12-23T03:36:15.285Z,99461.08
2018-12-23T03:37:44.847Z,99464.37
2018-12-23T03:39:15.219Z,99457.21
2018-12-23T03:40:45.667Z,99458.33
2018-12-23T03:42:15.827Z,99455.03
2018-12-23T03:43:46.184Z,99455.03
2018-12-23T03:45:16.142Z,99444.81
2018-12-23T03:46:46.437Z,99452.25
2018-12-23T03:48:16.544Z,99445.24
2018-12-23T03:49:46.732Z,99449.66
2018-12-23T03:51:16.825Z,99440.87
2018-12-23T03:52:47.065Z,99452.30
2018-12-23T03:54:19.312Z,99448.59
2018-12-23T03:55:50.674Z,99443.70
2018-12-23T03:57:21.256Z,99449.59
2018-12-23T03:58:51.460Z,99448.54
2018-12-23T04:00:21.849Z,99441.92
2018-12-23T04:01:52.264Z,99453.37
2018-12-23T04:03:22.969Z,99452.31
2018-12-23T04:04:53.353Z,99443.08
2018-12-23T04:06:24.707Z,99441.42
2018-12-23T04:07:55.438Z,99445.86
2018-12-23T04:09:25.822Z,99439.38
2018-12-23T04:10:56.360Z,99439.69
2018-12-23T04:12:28.930Z,99439.91
2018-12-23T04:13:59.463Z,99442.20
2018-12-23T04:15:30.159Z,99441.80
2018-12-23T04:17:02.399Z,99439.53
2018-12-23T04:18:35.019Z,99435.92
2018-12-23T04:20:05.802Z,99438.77
2018-12-23T04:21:38.182Z,99440.81
2018-12-23T04:23:10.075Z,99439.97
2018-12-23T04:24:42.650Z,99439.69
2018-12-23T04:26:13.825Z,99446.15
2018-12-23T04:27:44.130Z,99453.81
2018-12-23T04:29:14.782Z,99450.66
2018-12-23T04:30:46.606Z,99444.92
2018-12-23T04:32:17.043Z,99439.36
2018-12-23T04:33:49.153Z,99434.97
2018-12-23T04:35:21.498Z,99437.19
2018-12-23T04:36:51.903Z,99438.59
2018-12-23T04:38:23.698Z,99443.97
2018-12-23T04:39:55.894Z,99444.84
2018-12-23T04:41:26.439Z,99441.75
2018-12-23T04:42:56.552Z,99436.79
2018-12-23T04:44:28.860Z,99437.13
2018-12-23T04:45:59.332Z,99437.87
2018-12-23T04:47:29.751Z,99440.42
2018-12-23T04:49:00.618Z,99446.08
2018-12-23T04:50:33.058Z,99443.59
2018-12-23T04:52:03.232Z,99443.30
2018-12-23T04:53:33.583Z,99443.37
2018-12-23T04:55:05.918Z,99444.14
2018-12-23T04:56:38.112Z,99438.87
2018-12-23T04:58:08.563Z,99440.69
2018-12-23T04:59:39.441Z,99442.77
2018-12-23T05:01:09.703Z,99444.58
2018-12-23T05:02:46.063Z,99449.47
2018-12-23T05:04:16.454Z,99442.69
2018-12-23T05:05:48.887Z,99438.59
2018-12-23T05:07:21.162Z,99433.58
2018-12-23T05:08:51.803Z,99432.06
2018-12-23T05:10:23.987Z,99428.73
2018-12-23T05:11:54.076Z,99437.41
2018-12-23T05:13:26.546Z,99429.50
2018-12-23T05:14:58.656Z,99429.13
2018-12-23T05:16:31.382Z,99433.73
2018-12-23T05:18:04.063Z,99437.48
2018-12-23T05:19:36.712Z,99441.02
2018-12-23T05:21:08.848Z,99442.70
2018-12-23T05:22:39.423Z,99439.09
2018-12-23T05:24:10.012Z,99437.48
2018-12-23T05:25:40.685Z,99433.52
2018-12-23T05:27:11.268Z,99422.98
2018-12-23T05:28:41.810Z,99432.25
2018-12-23T05:30:12.392Z,99426.30
2018-12-23T05:31:43.034Z,99429.97
2018-12-23T05:33:13.607Z,99427.58
2018-12-23T05:34:44.467Z,99426.59
2018-12-23T05:36:16.575Z,99426.30
2018-12-23T05:37:47.387Z,99417.86
2018-12-23T05:39:17.816Z,99424.96
2018-12-23T05:40:51.406Z,99415.84
2018-12-23T05:42:23.562Z,99426.58
2018-12-23T05:43:54.128Z,99431.86
2018-12-23T05:45:24.593Z,99437.26
2018-12-23T05:46:58.714Z,99433.80
2018-12-23T05:48:31.112Z,99432.52
2018-12-23T05:50:01.672Z,99424.02
2018-12-23T05:51:32.318Z,99430.41
2018-12-23T05:53:02.916Z,99430.64
2018-12-23T05:54:33.370Z,99428.85
2018-12-23T05:56:05.592Z,99433.03
2018-12-23T05:57:38.083Z,99429.53
2018-12-23T05:59:10.517Z,99436.30
2018-12-23T06:00:42.605Z,99440.64
2018-12-23T06:02:14.948Z,99434.58
2018-12-23T06:03:45.833Z,99435.19
2018-12-23T06:05:15.980Z,99427.30
2018-12-23T06:06:48.064Z,99436.31
2018-12-23T06:08:20.258Z,99437.87
2018-12-23T06:09:51.041Z,99431.70
2018-12-23T06:11:23.633Z,99432.09
2018-12-23T06:12:53.879Z,99433.36
2018-12-23T06:14:24.245Z,99434.97
2018-12-23T06:15:55.176Z,99433.36
2018-12-23T06:17:25.795Z,99433.58
2018-12-23T06:18:56.182Z,99436.35
2018-12-23T06:20:26.712Z,99444.59
2018-12-23T06:21:58.823Z,99448.80
2018-12-23T06:23:29.286Z,99453.69
2018-12-23T06:24:59.691Z,99450.73
2018-12-23T06:26:32.447Z,99454.19
2018-12-23T06:28:02.550Z,99459.08
2018-12-23T06:29:34.600Z,99457.50
2018-12-23T06:31:04.718Z,99460.81
2018-12-23T06:32:34.991Z,99457.29
2018-12-23T06:34:05.340Z,99455.56
2018-12-23T06:35:35.805Z,99460.13
2018-12-23T06:37:10.283Z,99453.58
2018-12-23T06:38:40.355Z,99457.58
2018-12-23T06:40:12.732Z,99457.63
2018-12-23T06:41:42.881Z,99459.91
2018-12-23T06:43:13.377Z,99460.67
2018-12-23T06:44:43.786Z,99458.23
2018-12-23T06:46:14.117Z,99457.63
2018-12-23T06:47:44.473Z,99459.91
2018-12-23T06:49:14.733Z,99458.29
2018-12-23T06:50:46.809Z,99459.91
2018-12-23T06:52:17.128Z,99456.84
2018-12-23T06:53:47.148Z,99452.45
2018-12-23T06:55:19.177Z,99455.19
2018-12-23T06:56:49.826Z,99456.19
2018-12-23T06:58:20.241Z,99460.08
2018-12-23T06:59:50.492Z,99460.25
2018-12-23T07:01:20.657Z,99456.47
2018-12-23T07:02:52.964Z,99453.52
2018-12-23T07:04:23.695Z,99461.13
2018-12-23T07:05:54.157Z,99458.11
2018-12-23T07:07:24.447Z,99457.02
2018-12-23T07:08:54.735Z,99455.45
2018-12-23T07:10:25.182Z,99450.05
2018-12-23T07:11:55.356Z,99450.95
2018-12-23T07:13:25.711Z,99449.11
2018-12-23T07:14:56.302Z,99453.61
2018-12-23T07:16:26.303Z,99449.93
2018-12-23T07:17:56.396Z,99458.23
2018-12-23T07:19:26.619Z,99454.97
2018-12-23T07:20:56.859Z,99449.31
2018-12-23T07:22:26.816Z,99450.67
2018-12-23T07:23:56.948Z,99448.05
2018-12-23T07:25:27.167Z,99443.13
2018-12-23T07:26:57.567Z,99441.41
2018-12-23T07:28:29.621Z,99440.75
2018-12-23T07:29:59.896Z,99428.51
2018-12-23T07:31:30.351Z,99432.11
2018-12-23T07:33:00.626Z,99432.84
2018-12-23T07:34:32.767Z,99435.86
2018-12-23T07:36:03.110Z,99435.20
2018-12-23T07:37:33.278Z,99434.12
2018-12-23T07:39:05.427Z,99438.27
2018-12-23T07:40:35.411Z,99436.29
2018-12-23T07:42:05.700Z,99443.30
2018-12-23T07:43:37.728Z,99439.63
2018-12-23T07:45:10.394Z,99435.55
2018-12-23T07:46:40.534Z,99437.29
2018-12-23T07:48:10.529Z,99428.56
2018-12-23T07:49:40.804Z,99444.15
2018-12-23T07:51:10.776Z,99437.14
2018-12-23T07:52:41.068Z,99434.86
2018-12-23T07:54:11.874Z,99435.63
2018-12-23T07:55:42.103Z,99436.50
2018-12-23T07:57:13.462Z,99434.45
2018-12-23T07:58:43.590Z,99433.35
2018-12-23T08:00:14.360Z,99439.52
2018-12-23T08:01:44.369Z,99437.70
2018-12-23T08:03:14.939Z,99437.97
2018-12-23T08:04:45.282Z,99435.14
2018-12-23T08:06:15.517Z,99436.08
2018-12-23T08:07:45.636Z,99433.87
2018-12-23T08:09:16.014Z,99441.36
2018-12-23T08:10:45.961Z,99436.16
2018-12-23T08:12:16.039Z,99437.59
2018-12-23T08:13:46.113Z,99437.86
2018-12-23T08:15:16.307Z,99440.77
2018-12-23T08:16:47.942Z,99437.16
2018-12-23T08:19:04.231Z,99436.54
2018-12-23T08:20:34.376Z,99436.31
2018-12-23T08:22:05.960Z,99438.21
2018-12-23T08:23:36.731Z,99441.08
2018-12-23T08:25:07.361Z,99444.77
2018-12-23T08:26:37.876Z,99444.11
2018-12-23T08:28:08.400Z,99439.14
2018-12-23T08:29:42.944Z,99439.30
2018-12-23T08:31:13.588Z,99439.57
2018-12-23T08:32:44.580Z,99441.08
2018-12-23T08:34:14.764Z,99435.80
2018-12-23T08:35:45.011Z,99430.37
2018-12-23T08:37:15.417Z,99433.17
2018-12-23T08:38:46.396Z,99429.52
2018-12-23T08:41:17.333Z,99428.70
2018-12-23T08:42:48.333Z,99431.25
2018-12-23T08:44:55.346Z,99426.17
2018-12-23T08:46:41.264Z,99424.41
2018-12-23T08:48:24.606Z,99432.37
2018-12-23T08:49:55.643Z,99425.22
2018-12-23T08:51:26.577Z,99429.03
2018-12-23T08:53:05.096Z,99426.05
2018-12-23T08:54:41.639Z,99426.08
2018-12-23T08:56:28.735Z,99425.17
2018-12-23T08:57:59.196Z,99426.15
2018-12-23T08:59:29.532Z,99419.77
2018-12-23T09:01:06.204Z,99431.59
2018-12-23T09:02:40.511Z,99427.14
2018-12-23T09:04:18.492Z,99424.58
2018-12-23T09:05:48.684Z,99417.98
2018-12-23T09:07:19.056Z,99416.97
2018-12-23T09:08:53.412Z,99417.80
2018-12-23T09:10:23.632Z,99416.44
2018-12-23T09:11:54.332Z,99413.13
2018-12-23T09:13:24.380Z,99406.72
2018-12-23T09:14:56.412Z,99409.52
2018-12-23T09:16:30.019Z,99412.89
2018-12-23T09:18:00.738Z,99409.52
2018-12-23T09:19:31.344Z,99402.64
2018-12-23T09:21:01.516Z,99412.65
2018-12-23T09:22:32.550Z,99401.30
2018-12-23T09:24:07.454Z,99397.71
2018-12-23T09:25:38.577Z,99400.38
2018-12-23T09:27:08.792Z,99401.77
2018-12-23T09:28:38.982Z,99392.30
2018-12-23T09:30:13.627Z,99403.23
2018-12-23T09:31:48.470Z,99392.32
2018-12-23T09:33:20.890Z,99387.46
2018-12-23T09:34:51.065Z,99395.17
2018-12-23T09:36:21.176Z,99393.36
2018-12-23T09:37:51.547Z,99387.98
2018-12-23T09:39:21.708Z,99386.80
2018-12-23T09:40:51.869Z,99399.57
2018-12-23T09:42:22.083Z,99394.03
2018-12-23T09:43:52.418Z,99394.42
2018-12-23T09:45:22.537Z,99387.00
2018-12-23T09:46:52.801Z,99386.70
2018-12-23T09:48:23.049Z,99378.01
2018-12-23T09:49:53.492Z,99374.20
2018-12-23T09:51:24.506Z,99373.33
2018-12-23T09:52:55.205Z,99378.34
2018-12-23T09:54:25.361Z,99373.45
2018-12-23T09:55:56.088Z,99371.77
2018-12-23T09:57:26.271Z,99369.14
2018-12-23T09:58:56.644Z,99367.23
2018-12-23T10:00:26.919Z,99373.78
2018-12-23T10:02:09.243Z,99371.47
2018-12-23T10:03:39.466Z,99368.27
2018-12-23T10:05:12.699Z,99370.44
2018-12-23T10:06:42.881Z,99372.99
2018-12-23T10:08:13.000Z,99363.47
2018-12-23T10:09:43.191Z,99362.81
2018-12-23T10:11:13.377Z,99357.45
2018-12-23T10:12:43.445Z,99353.75
2018-12-23T10:14:14.710Z,99354.02
2018-12-23T10:15:44.970Z,99352.97
2018-12-23T10:17:15.518Z,99357.28
2018-12-23T10:18:45.715Z,99350.88
2018-12-23T10:20:15.936Z,99353.44
2018-12-23T10:21:46.138Z,99355.67
2018-12-23T10:23:16.620Z,99349.91
2018-12-23T10:24:46.835Z,99353.61
2018-12-23T10:26:17.529Z,99348.02
2018-12-23T10:27:47.979Z,99341.50
2018-12-23T10:29:18.230Z,99342.80
2018-12-23T10:30:48.334Z,99340.48
2018-12-23T10:32:18.640Z,99338.07
2018-12-23T10:33:48.829Z,99336.55
2018-12-23T10:35:19.065Z,99340.55
2018-12-23T10:36:49.012Z,99338.33
2018-12-23T10:38:19.054Z,99330.12
2018-12-23T10:39:49.417Z,99332.14
2018-12-23T10:41:19.521Z,99323.55
2018-12-23T10:42:50.133Z,99326.14
2018-12-23T10:44:20.487Z,99323.08
2018-12-23T10:45:50.720Z,99322.44
2018-12-23T10:47:20.801Z,99316.66
2018-12-23T10:50:36.198Z,99309.23
2018-12-23T10:52:06.245Z,99309.22
2018-12-23T10:53:36.394Z,99298.17
2018-12-23T10:55:06.832Z,99303.20
2018-12-23T10:56:36.774Z,99302.02
2018-12-23T10:58:06.823Z,99287.67
2018-12-23T10:59:36.908Z,99288.45
2018-12-23T11:01:07.246Z,99282.69
2018-12-23T11:02:37.449Z,99286.81
2018-12-23T11:04:07.893Z,99284.25
2018-12-23T11:05:38.437Z,99277.05
2018-12-23T11:07:08.392Z,99270.00
2018-12-23T11:08:38.680Z,99271.53
2018-12-23T11:10:09.122Z,99272.03
2018-12-23T11:11:39.434Z,99269.75
2018-12-23T11:13:09.597Z,99260.88
2018-12-23T11:14:39.800Z,99260.27
2018-12-23T11:16:09.954Z,99255.89
2018-12-23T11:17:40.315Z,99259.73
2018-12-23T11:19:10.351Z,99249.98
2018-12-23T11:20:40.544Z,99253.69
2018-12-23T11:22:10.841Z,99251.77
2018-12-23T11:23:41.236Z,99246.37
2018-12-23T11:25:11.320Z,99241.53
2018-12-23T11:26:41.523Z,99239.72
2018-12-23T11:28:11.774Z,99234.55
2018-12-23T11:29:42.025Z,99235.73
2018-12-23T11:31:12.167Z,99229.20
2018-12-23T11:32:42.493Z,99227.53
2018-12-23T11:34:12.709Z,99228.95
2018-12-23T11:35:42.971Z,99227.53
2018-12-23T11:37:13.292Z,99224.30
2018-12-23T11:38:43.679Z,99210.97
2018-12-23T11:40:13.684Z,99207.38
2018-12-23T11:41:43.754Z,99206.34
2018-12-23T11:43:13.711Z,99204.81
2018-12-23T11:44:44.095Z,99193.80
2018-12-23T11:46:17.125Z,99193.13
2018-12-23T11:47:47.221Z,99190.95
2018-12-23T11:49:17.276Z,99186.72
2018-12-23T11:50:47.533Z,99190.42
2018-12-23T11:52:17.883Z,99189.78
2018-12-23T11:53:48.024Z,99188.25
2018-12-23T11:55:18.113Z,99191.45
2018-12-23T11:56:48.055Z,99181.20
2018-12-23T11:58:18.112Z,99184.25
2018-12-23T11:59:48.110Z,99180.66
2018-12-23T12:01:18.161Z,99176.06
2018-12-23T12:02:48.221Z,99171.70
2018-12-23T12:04:18.532Z,99161.97
2018-12-23T12:05:48.534Z,99158.88
2018-12-23T12:07:18.594Z,99159.91
2018-12-23T12:08:48.760Z,99151.44
2018-12-23T12:10:19.227Z,99155.81
2018-12-23T12:11:50.975Z,99146.95
2018-12-23T12:13:21.059Z,99146.80
2018-12-23T12:14:51.365Z,99145.66
2018-12-23T12:16:21.613Z,99142.85
2018-12-23T12:17:51.695Z,99134.48
2018-12-23T12:19:21.757Z,99134.23
2018-12-23T12:20:51.863Z,99126.80
2018-12-23T12:22:22.031Z,99120.78
2018-12-23T12:23:52.331Z,99120.92
2018-12-23T12:25:22.423Z,99119.14
2018-12-23T12:26:52.783Z,99117.08
2018-12-23T12:28:22.836Z,99117.08
2018-12-23T12:29:52.779Z,99107.62
2018-12-23T12:31:22.773Z,99097.86
2018-12-23T12:32:52.849Z,99097.22
2018-12-23T12:34:23.276Z,99093.52
2018-12-23T12:35:53.576Z,99091.95
2018-12-23T12:37:23.618Z,99092.59
2018-12-23T12:38:53.672Z,99088.65
2018-12-23T12:40:24.142Z,99087.86
2018-12-23T12:41:54.210Z,99082.48
2018-12-23T12:43:24.266Z,99081.98
2018-12-23T12:44:54.482Z,99083.27
2018-12-23T12:46:24.819Z,99075.94
2018-12-23T12:47:54.972Z,99069.39
2018-12-23T12:49:25.133Z,99068.61
2018-12-23T12:50:55.361Z,99060.42
2018-12-23T12:52:25.776Z,99058.65
2018-12-23T12:53:56.087Z,99051.47
2018-12-23T12:55:26.164Z,99051.86
2018-12-23T12:56:56.359Z,99044.52
2018-12-23T12:58:26.800Z,99037.34
2018-12-23T12:59:57.510Z,99035.56
2018-12-23T13:01:27.486Z,99033.14
2018-12-23T13:02:57.672Z,99027.63
2018-12-23T13:04:27.832Z,99024.67
2018-12-23T13:05:58.024Z,99026.30
2018-12-23T13:07:28.203Z,99020.92
2018-12-23T13:09:00.571Z,99015.02
2018-12-23T13:10:30.705Z,99006.80
2018-12-23T13:12:00.913Z,99012.80
2018-12-23T13:13:31.114Z,99006.16
2018-12-23T13:15:01.436Z,99011.92
2018-12-23T13:16:31.676Z,99008.08
2018-12-23T13:18:01.990Z,99007.83
2018-12-23T13:19:32.503Z,99003.22
2018-12-23T13:21:02.831Z,98994.53
2018-12-23T13:22:33.026Z,98981.98
2018-12-23T13:24:03.215Z,98980.70
2018-12-23T13:25:33.525Z,98974.70
2018-12-23T13:27:03.847Z,98976.23
2018-12-23T13:28:34.090Z,98963.78
2018-12-23T13:30:04.904Z,98960.72
2018-12-23T13:31:35.182Z,98954.33
2018-12-23T13:33:05.415Z,98956.64
2018-12-23T13:34:35.815Z,98950.88
2018-12-23T13:36:08.015Z,98950.74
2018-12-23T13:37:38.415Z,98936.66
2018-12-23T13:39:10.802Z,98931.55
2018-12-23T13:41:01.335Z,98929.52
2018-12-23T13:43:16.313Z,98925.04
2018-12-23T13:45:30.588Z,98920.59
2018-12-23T13:47:48.413Z,98909.81
2018-12-23T13:49:56.477Z,98900.61
2018-12-23T13:51:49.367Z,98895.21
2018-12-23T13:54:19.830Z,98889.84
2018-12-23T13:56:06.100Z,98890.62
2018-12-23T13:58:27.188Z,98890.34
2018-12-23T14:00:27.645Z,98888.03
2018-12-23T14:02:41.630Z,98883.97
2018-12-23T14:04:37.992Z,98870.50
2018-12-23T14:06:49.289Z,98867.56
2018-12-23T14:09:17.392Z,98870.66
2018-12-23T14:11:27.506Z,98865.53
2018-12-23T14:12:59.605Z,98846.98
2018-12-23T14:14:29.938Z,98847.72
2018-12-23T14:16:00.142Z,98846.33
2018-12-23T14:17:30.459Z,98835.20
2018-12-23T14:19:16.119Z,98833.28
2018-12-23T14:20:46.316Z,98829.16
2018-12-23T14:22:16.756Z,98816.91
2018-12-23T14:23:46.997Z,98811.80
2018-12-23T14:25:17.544Z,98807.95
2018-12-23T14:26:47.733Z,98798.47
2018-12-23T14:28:17.961Z,98807.94
2018-12-23T14:29:48.399Z,98804.87
2018-12-23T14:31:19.235Z,98793.21
2018-12-23T14:32:49.542Z,98799.61
2018-12-23T14:34:19.821Z,98789.27
2018-12-23T14:35:50.088Z,98786.18
2018-12-23T14:37:20.274Z,98791.05
2018-12-23T14:38:50.953Z,98781.45
2018-12-23T14:40:21.193Z,98770.33
2018-12-23T14:41:51.395Z,98768.91
2018-12-23T14:43:21.975Z,98766.25
2018-12-23T14:44:52.380Z,98769.06
2018-12-23T14:46:22.644Z,98764.19
2018-12-23T14:47:52.973Z,98760.11
2018-12-23T14:49:26.197Z,98761.88
2018-12-23T14:50:56.397Z,98759.84
2018-12-23T14:52:26.590Z,98755.73
2018-12-23T14:53:56.722Z,98755.22
2018-12-23T14:55:26.963Z,98744.84
2018-12-23T14:56:57.027Z,98747.80
2018-12-23T14:58:27.435Z,98746.67
2018-12-23T14:59:57.698Z,98739.86
2018-12-23T15:01:27.645Z,98742.41
2018-12-23T15:02:57.839Z,98739.22
2018-12-23T15:04:28.031Z,98729.39
2018-12-23T15:05:58.496Z,98735.02
2018-12-23T15:07:28.813Z,98732.22
2018-12-23T15:08:59.103Z,98727.84
2018-12-23T15:10:47.775Z,98727.48
2018-12-23T15:12:17.853Z,98725.54
2018-12-23T15:13:48.059Z,98724.02
2018-12-23T15:15:18.257Z,98722.73
2018-12-23T15:16:48.593Z,98721.45
2018-12-23T15:18:19.164Z,98720.67
2018-12-23T15:19:49.343Z,98717.61
2018-12-23T15:21:19.739Z,98717.61
2018-12-23T15:22:49.902Z,98725.80
2018-12-23T15:24:20.062Z,98728.63
2018-12-23T15:25:50.634Z,98724.02
2018-12-23T15:27:21.182Z,98715.31
2018-12-23T15:28:51.585Z,98712.25
2018-12-23T15:30:21.754Z,98716.72
2018-12-23T15:31:51.808Z,98710.44
2018-12-23T15:33:21.979Z,98715.66
2018-12-23T15:34:52.184Z,98712.63
2018-12-23T15:36:22.602Z,98705.56
2018-12-23T15:37:53.744Z,98701.95
2018-12-23T15:39:24.209Z,98709.16
2018-12-23T15:40:54.438Z,98705.32
2018-12-23T15:42:24.888Z,98707.34
2018-12-23T15:43:55.240Z,98705.52
2018-12-23T15:45:25.392Z,98694.02
2018-12-23T15:46:55.577Z,98691.16
2018-12-23T15:48:25.642Z,98695.02
2018-12-23T15:49:56.118Z,98694.98
2018-12-23T15:51:26.196Z,98691.91
2018-12-23T15:52:56.537Z,98688.61
2018-12-23T15:54:26.619Z,98690.53
2018-12-23T15:55:56.833Z,98685.52
2018-12-23T15:57:26.996Z,98685.78
2018-12-23T15:58:57.062Z,98670.44
2018-12-23T16:00:27.123Z,98678.91
2018-12-23T16:01:57.582Z,98672.22
2018-12-23T16:03:27.930Z,98664.55
2018-12-23T16:04:58.115Z,98669.41
2018-12-23T16:06:28.321Z,98658.19
2018-12-23T16:07:58.492Z,98661.91
2018-12-23T16:09:28.657Z,98657.59
2018-12-23T16:10:58.877Z,98655.33
2018-12-23T16:12:29.061Z,98656.86
2018-12-23T16:13:59.649Z,98644.69
2018-12-23T16:15:29.720Z,98635.53
2018-12-23T16:16:59.921Z,98642.95
2018-12-23T16:18:30.084Z,98634.75
2018-12-23T16:20:00.413Z,98631.36
2018-12-23T16:21:30.551Z,98630.31
2018-12-23T16:23:00.718Z,98629.30
2018-12-23T16:24:30.880Z,98625.68
2018-12-23T16:26:01.435Z,98623.42
2018-12-23T16:27:31.576Z,98624.53
2018-12-23T16:29:01.958Z,98621.30
2018-12-23T16:30:32.343Z,98616.14
2018-12-23T16:32:02.641Z,98611.28
2018-12-23T16:33:33.022Z,98612.30
2018-12-23T16:35:03.290Z,98609.20
2018-12-23T16:36:33.626Z,98612.39
2018-12-23T16:38:03.834Z,98612.52
2018-12-23T16:39:33.988Z,98619.81
2018-12-23T16:41:04.144Z,98609.03
2018-12-23T16:42:34.533Z,98610.67
2018-12-23T16:44:04.714Z,98614.25
2018-12-23T16:45:34.898Z,98611.95
2018-12-23T16:47:05.121Z,98613.23
2018-12-23T16:48:35.212Z,98618.57
2018-12-23T16:50:06.535Z,98611.45
2018-12-23T16:51:36.649Z,98610.22
2018-12-23T16:53:06.956Z,98608.89
2018-12-23T16:54:37.101Z,98604.46
2018-12-23T16:56:07.541Z,98604.81
2018-12-23T16:57:37.744Z,98603.12
2018-12-23T16:59:07.898Z,98600.38
2018-12-23T17:00:38.073Z,98603.60
2018-12-23T17:02:08.219Z,98597.34
2018-12-23T17:03:38.693Z,98597.68
2018-12-23T17:05:09.229Z,98602.45
2018-12-23T17:06:39.542Z,98602.17
2018-12-23T17:08:09.608Z,98601.11
2018-12-23T17:09:39.782Z,98585.78
2018-12-23T17:11:09.958Z,98585.73
2018-12-23T17:12:40.239Z,98578.63
2018-12-23T17:14:10.791Z,98584.97
2018-12-23T17:15:41.011Z,98582.37
2018-12-23T17:17:26.597Z,98590.59
2018-12-23T17:18:56.810Z,98585.87
2018-12-23T17:20:33.130Z,98591.36
2018-12-23T17:22:03.662Z,98591.81
2018-12-23T17:23:33.859Z,98585.89
2018-12-23T17:25:04.348Z,98587.91
2018-12-23T17:26:34.552Z,98577.44
2018-12-23T17:28:56.734Z,98580.47
2018-12-23T17:30:26.944Z,98570.63
2018-12-23T17:31:57.694Z,98574.00
2018-12-23T17:33:27.870Z,98573.14
2018-12-23T17:34:58.079Z,98570.76
2018-12-23T17:36:28.271Z,98572.11
2018-12-23T17:37:58.686Z,98572.25
2018-12-23T17:39:29.110Z,98567.67
2018-12-23T17:40:59.321Z,98571.86
2018-12-23T17:42:29.349Z,98576.38
2018-12-23T17:43:59.683Z,98572.95
2018-12-23T17:45:29.879Z,98581.39
2018-12-23T17:47:00.131Z,98575.25
2018-12-23T17:48:30.356Z,98575.45
2018-12-23T17:50:00.521Z,98577.99
2018-12-23T17:51:30.706Z,98573.67
2018-12-23T17:53:00.875Z,98581.05
2018-12-23T17:54:31.084Z,98582.73
2018-12-23T17:56:01.488Z,98585.28
2018-12-23T17:57:31.735Z,98583.53
2018-12-23T17:59:02.082Z,98586.50
2018-12-23T18:00:32.423Z,98582.86
2018-12-23T18:02:02.656Z,98578.69
2018-12-23T18:03:32.857Z,98570.98
2018-12-23T18:05:03.394Z,98578.69
2018-12-23T18:06:33.612Z,98566.81